sensor_id;sensor_type;location;lat;lon;timestamp;P1;durP1;ratioP1;P2;durP2;ratioP2
10769;SDS011;5437;50.852;4.438;2023-06-24T00:00:39;2.78;;;2.20;;
10769;SDS011;5437;50.852;4.438;2023-06-24T00:03:08;2.50;;;2.30;;
10769;SDS011;5437;50.852;4.438;2023-06-24T00:05:35;2.95;;;2.10;;
10769;SDS011;5437;50.852;4.438;2023-06-24T00:08:01;2.50;;;2.03;;
10769;SDS011;5437;50.852;4.438;2023-06-24T00:10:28;3.88;;;2.40;;
10769;SDS011;5437;50.852;4.438;2023-06-24T00:12:54;1.65;;;1.55;;
10769;SDS011;5437;50.852;4.438;2023-06-24T00:15:21;2.67;;;1.90;;
10769;SDS011;5437;50.852;4.438;2023-06-24T00:17:47;2.10;;;1.90;;
10769;SDS011;5437;50.852;4.438;2023-06-24T00:20:14;2.03;;;1.80;;
10769;SDS011;5437;50.852;4.438;2023-06-24T00:22:48;1.80;;;1.70;;
10769;SDS011;5437;50.852;4.438;2023-06-24T00:25:14;2.35;;;1.60;;
10769;SDS011;5437;50.852;4.438;2023-06-24T00:27:41;2.15;;;1.55;;
10769;SDS011;5437;50.852;4.438;2023-06-24T00:30:08;1.75;;;1.60;;
10769;SDS011;5437;50.852;4.438;2023-06-24T00:32:34;2.70;;;1.90;;
10769;SDS011;5437;50.852;4.438;2023-06-24T00:35:00;1.73;;;1.63;;
10769;SDS011;5437;50.852;4.438;2023-06-24T00:37:26;1.73;;;1.60;;
10769;SDS011;5437;50.852;4.438;2023-06-24T00:39:53;1.60;;;1.50;;
10769;SDS011;5437;50.852;4.438;2023-06-24T00:42:19;4.68;;;1.85;;
10769;SDS011;5437;50.852;4.438;2023-06-24T00:44:45;2.53;;;1.90;;
10769;SDS011;5437;50.852;4.438;2023-06-24T00:47:15;1.85;;;1.60;;
10769;SDS011;5437;50.852;4.438;2023-06-24T00:49:41;1.83;;;1.45;;
10769;SDS011;5437;50.852;4.438;2023-06-24T00:52:10;1.88;;;1.70;;
10769;SDS011;5437;50.852;4.438;2023-06-24T00:54:41;1.70;;;1.50;;
10769;SDS011;5437;50.852;4.438;2023-06-24T00:57:07;1.83;;;1.65;;
10769;SDS011;5437;50.852;4.438;2023-06-24T00:59:33;2.40;;;1.40;;
10769;SDS011;5437;50.852;4.438;2023-06-24T01:02:00;1.98;;;1.70;;
10769;SDS011;5437;50.852;4.438;2023-06-24T01:04:26;1.90;;;1.70;;
10769;SDS011;5437;50.852;4.438;2023-06-24T01:06:56;2.47;;;1.70;;
10769;SDS011;5437;50.852;4.438;2023-06-24T01:09:23;2.03;;;1.60;;
10769;SDS011;5437;50.852;4.438;2023-06-24T01:11:49;2.55;;;1.75;;
10769;SDS011;5437;50.852;4.438;2023-06-24T01:14:16;2.72;;;1.80;;
10769;SDS011;5437;50.852;4.438;2023-06-24T01:17:05;1.65;;;1.55;;
10769;SDS011;5437;50.852;4.438;2023-06-24T01:27:19;3.45;;;1.98;;
10769;SDS011;5437;50.852;4.438;2023-06-24T01:30:03;2.75;;;1.90;;
10769;SDS011;5437;50.852;4.438;2023-06-24T01:32:34;2.78;;;2.33;;
10769;SDS011;5437;50.852;4.438;2023-06-24T01:35:09;2.38;;;2.17;;
10769;SDS011;5437;50.852;4.438;2023-06-24T01:37:52;2.67;;;2.13;;
10769;SDS011;5437;50.852;4.438;2023-06-24T01:42:48;2.72;;;2.05;;
10769;SDS011;5437;50.852;4.438;2023-06-24T01:45:25;3.75;;;2.22;;
10769;SDS011;5437;50.852;4.438;2023-06-24T01:48:27;3.33;;;2.22;;
10769;SDS011;5437;50.852;4.438;2023-06-24T01:50:48;3.25;;;2.40;;
10769;SDS011;5437;50.852;4.438;2023-06-24T01:53:14;3.63;;;2.20;;
10769;SDS011;5437;50.852;4.438;2023-06-24T01:55:41;2.95;;;2.33;;
10769;SDS011;5437;50.852;4.438;2023-06-24T01:58:08;3.45;;;2.70;;
10769;SDS011;5437;50.852;4.438;2023-06-24T02:00:37;2.83;;;2.22;;
10769;SDS011;5437;50.852;4.438;2023-06-24T02:03:04;2.95;;;2.40;;
10769;SDS011;5437;50.852;4.438;2023-06-24T02:05:31;2.50;;;2.22;;
10769;SDS011;5437;50.852;4.438;2023-06-24T02:07:57;2.90;;;2.40;;
10769;SDS011;5437;50.852;4.438;2023-06-24T02:10:24;2.90;;;2.22;;
10769;SDS011;5437;50.852;4.438;2023-06-24T02:12:51;3.45;;;2.70;;
10769;SDS011;5437;50.852;4.438;2023-06-24T02:15:18;2.47;;;2.25;;
10769;SDS011;5437;50.852;4.438;2023-06-24T02:17:45;2.70;;;2.40;;
10769;SDS011;5437;50.852;4.438;2023-06-24T02:20:12;2.90;;;2.20;;
10769;SDS011;5437;50.852;4.438;2023-06-24T02:22:41;2.75;;;2.40;;
10769;SDS011;5437;50.852;4.438;2023-06-24T02:25:12;2.88;;;2.47;;
10769;SDS011;5437;50.852;4.438;2023-06-24T02:27:39;2.75;;;2.25;;
10769;SDS011;5437;50.852;4.438;2023-06-24T02:30:15;2.88;;;2.17;;
10769;SDS011;5437;50.852;4.438;2023-06-24T02:32:41;3.03;;;2.53;;
10769;SDS011;5437;50.852;4.438;2023-06-24T02:35:07;3.50;;;2.40;;
10769;SDS011;5437;50.852;4.438;2023-06-24T02:37:34;2.90;;;2.30;;
10769;SDS011;5437;50.852;4.438;2023-06-24T02:40:00;2.42;;;2.22;;
10769;SDS011;5437;50.852;4.438;2023-06-24T02:42:30;4.00;;;2.58;;
10769;SDS011;5437;50.852;4.438;2023-06-24T02:44:57;3.28;;;2.70;;
10769;SDS011;5437;50.852;4.438;2023-06-24T02:47:26;3.65;;;2.80;;
10769;SDS011;5437;50.852;4.438;2023-06-24T02:49:54;3.47;;;2.45;;
10769;SDS011;5437;50.852;4.438;2023-06-24T02:52:22;2.58;;;2.35;;
10769;SDS011;5437;50.852;4.438;2023-06-24T02:54:51;3.53;;;2.22;;
10769;SDS011;5437;50.852;4.438;2023-06-24T02:57:25;3.10;;;2.75;;
10769;SDS011;5437;50.852;4.438;2023-06-24T02:59:56;5.05;;;2.60;;
10769;SDS011;5437;50.852;4.438;2023-06-24T03:02:22;3.05;;;2.30;;
10769;SDS011;5437;50.852;4.438;2023-06-24T03:04:50;3.28;;;2.45;;
10769;SDS011;5437;50.852;4.438;2023-06-24T03:07:16;2.40;;;2.20;;
10769;SDS011;5437;50.852;4.438;2023-06-24T03:09:45;3.20;;;2.33;;
10769;SDS011;5437;50.852;4.438;2023-06-24T03:12:12;3.22;;;2.45;;
10769;SDS011;5437;50.852;4.438;2023-06-24T03:14:38;2.92;;;2.38;;
10769;SDS011;5437;50.852;4.438;2023-06-24T03:17:10;2.22;;;1.80;;
10769;SDS011;5437;50.852;4.438;2023-06-24T03:19:42;2.78;;;2.20;;
10769;SDS011;5437;50.852;4.438;2023-06-24T03:22:09;2.38;;;2.17;;
10769;SDS011;5437;50.852;4.438;2023-06-24T03:24:35;3.42;;;2.38;;
10769;SDS011;5437;50.852;4.438;2023-06-24T03:27:01;2.75;;;2.15;;
10769;SDS011;5437;50.852;4.438;2023-06-24T03:29:27;3.00;;;2.22;;
10769;SDS011;5437;50.852;4.438;2023-06-24T03:31:53;3.00;;;2.22;;
10769;SDS011;5437;50.852;4.438;2023-06-24T03:34:25;3.45;;;2.13;;
10769;SDS011;5437;50.852;4.438;2023-06-24T03:36:52;3.40;;;2.13;;
10769;SDS011;5437;50.852;4.438;2023-06-24T03:39:22;3.65;;;2.00;;
10769;SDS011;5437;50.852;4.438;2023-06-24T03:41:48;3.08;;;2.03;;
10769;SDS011;5437;50.852;4.438;2023-06-24T03:44:20;2.17;;;1.92;;
10769;SDS011;5437;50.852;4.438;2023-06-24T03:46:46;2.35;;;2.00;;
10769;SDS011;5437;50.852;4.438;2023-06-24T03:49:12;4.18;;;2.28;;
10769;SDS011;5437;50.852;4.438;2023-06-24T03:51:41;3.15;;;2.28;;
10769;SDS011;5437;50.852;4.438;2023-06-24T03:54:11;4.43;;;2.30;;
10769;SDS011;5437;50.852;4.438;2023-06-24T03:56:37;2.80;;;2.33;;
10769;SDS011;5437;50.852;4.438;2023-06-24T03:59:04;2.30;;;2.10;;
10769;SDS011;5437;50.852;4.438;2023-06-24T04:01:30;2.35;;;2.03;;
10769;SDS011;5437;50.852;4.438;2023-06-24T04:04:01;2.55;;;2.00;;
10769;SDS011;5437;50.852;4.438;2023-06-24T04:06:31;2.50;;;2.00;;
10769;SDS011;5437;50.852;4.438;2023-06-24T04:08:57;5.47;;;2.38;;
10769;SDS011;5437;50.852;4.438;2023-06-24T04:11:24;3.10;;;2.30;;
10769;SDS011;5437;50.852;4.438;2023-06-24T04:13:50;2.50;;;2.17;;
10769;SDS011;5437;50.852;4.438;2023-06-24T04:16:16;3.17;;;2.60;;
10769;SDS011;5437;50.852;4.438;2023-06-24T04:18:42;3.25;;;2.00;;
10769;SDS011;5437;50.852;4.438;2023-06-24T04:21:08;2.42;;;1.98;;
10769;SDS011;5437;50.852;4.438;2023-06-24T04:23:34;3.63;;;2.28;;
10769;SDS011;5437;50.852;4.438;2023-06-24T04:26:10;2.58;;;2.22;;
10769;SDS011;5437;50.852;4.438;2023-06-24T04:28:36;3.17;;;2.08;;
10769;SDS011;5437;50.852;4.438;2023-06-24T04:31:08;3.33;;;2.28;;
10769;SDS011;5437;50.852;4.438;2023-06-24T04:33:34;2.30;;;1.90;;
10769;SDS011;5437;50.852;4.438;2023-06-24T04:36:03;2.13;;;1.92;;
10769;SDS011;5437;50.852;4.438;2023-06-24T04:38:33;2.05;;;1.80;;
10769;SDS011;5437;50.852;4.438;2023-06-24T04:41:05;2.65;;;2.05;;
10769;SDS011;5437;50.852;4.438;2023-06-24T04:43:31;2.28;;;2.08;;
10769;SDS011;5437;50.852;4.438;2023-06-24T04:45:57;2.75;;;2.20;;
10769;SDS011;5437;50.852;4.438;2023-06-24T04:48:23;2.17;;;1.90;;
10769;SDS011;5437;50.852;4.438;2023-06-24T04:50:50;3.65;;;1.90;;
10769;SDS011;5437;50.852;4.438;2023-06-24T04:53:18;2.53;;;1.92;;
10769;SDS011;5437;50.852;4.438;2023-06-24T04:55:54;2.30;;;1.90;;
10769;SDS011;5437;50.852;4.438;2023-06-24T04:58:20;2.85;;;1.88;;
10769;SDS011;5437;50.852;4.438;2023-06-24T05:00:49;2.22;;;2.00;;
10769;SDS011;5437;50.852;4.438;2023-06-24T05:03:21;2.67;;;2.10;;
10769;SDS011;5437;50.852;4.438;2023-06-24T05:05:47;2.03;;;1.70;;
10769;SDS011;5437;50.852;4.438;2023-06-24T05:08:13;2.13;;;1.92;;
10769;SDS011;5437;50.852;4.438;2023-06-24T05:10:39;2.65;;;1.85;;
10769;SDS011;5437;50.852;4.438;2023-06-24T05:13:05;2.78;;;2.00;;
10769;SDS011;5437;50.852;4.438;2023-06-24T05:15:32;1.77;;;1.67;;
10769;SDS011;5437;50.852;4.438;2023-06-24T05:17:58;2.03;;;1.83;;
10769;SDS011;5437;50.852;4.438;2023-06-24T05:20:24;2.58;;;1.92;;
10769;SDS011;5437;50.852;4.438;2023-06-24T05:22:50;2.13;;;1.92;;
10769;SDS011;5437;50.852;4.438;2023-06-24T05:25:16;2.42;;;2.22;;
10769;SDS011;5437;50.852;4.438;2023-06-24T05:27:43;3.72;;;1.73;;
10769;SDS011;5437;50.852;4.438;2023-06-24T05:30:12;2.10;;;1.90;;
10769;SDS011;5437;50.852;4.438;2023-06-24T05:32:39;2.05;;;1.85;;
10769;SDS011;5437;50.852;4.438;2023-06-24T05:35:05;2.38;;;1.80;;
10769;SDS011;5437;50.852;4.438;2023-06-24T05:37:31;2.75;;;1.80;;
10769;SDS011;5437;50.852;4.438;2023-06-24T05:40:01;1.98;;;1.73;;
10769;SDS011;5437;50.852;4.438;2023-06-24T05:42:27;2.05;;;1.85;;
10769;SDS011;5437;50.852;4.438;2023-06-24T05:44:53;1.80;;;1.70;;
10769;SDS011;5437;50.852;4.438;2023-06-24T05:47:23;2.22;;;1.83;;
10769;SDS011;5437;50.852;4.438;2023-06-24T05:49:51;2.45;;;1.90;;
10769;SDS011;5437;50.852;4.438;2023-06-24T05:52:17;2.22;;;1.90;;
10769;SDS011;5437;50.852;4.438;2023-06-24T05:54:44;2.25;;;2.05;;
10769;SDS011;5437;50.852;4.438;2023-06-24T05:57:10;2.50;;;1.83;;
10769;SDS011;5437;50.852;4.438;2023-06-24T05:59:36;2.10;;;1.90;;
10769;SDS011;5437;50.852;4.438;2023-06-24T06:02:02;2.08;;;1.70;;
10769;SDS011;5437;50.852;4.438;2023-06-24T06:04:29;2.75;;;1.85;;
10769;SDS011;5437;50.852;4.438;2023-06-24T06:06:55;2.42;;;1.83;;
10769;SDS011;5437;50.852;4.438;2023-06-24T06:09:21;2.30;;;1.85;;
10769;SDS011;5437;50.852;4.438;2023-06-24T06:11:48;1.77;;;1.67;;
10769;SDS011;5437;50.852;4.438;2023-06-24T06:14:14;2.75;;;1.60;;
10769;SDS011;5437;50.852;4.438;2023-06-24T06:16:40;1.73;;;1.60;;
10769;SDS011;5437;50.852;4.438;2023-06-24T06:19:06;2.70;;;1.90;;
10769;SDS011;5437;50.852;4.438;2023-06-24T06:21:32;2.08;;;1.77;;
10769;SDS011;5437;50.852;4.438;2023-06-24T06:23:58;2.15;;;1.70;;
10769;SDS011;5437;50.852;4.438;2023-06-24T06:26:25;1.88;;;1.67;;
10769;SDS011;5437;50.852;4.438;2023-06-24T06:28:51;2.13;;;1.75;;
10769;SDS011;5437;50.852;4.438;2023-06-24T06:31:18;2.10;;;1.90;;
10769;SDS011;5437;50.852;4.438;2023-06-24T06:33:46;1.67;;;1.58;;
10769;SDS011;5437;50.852;4.438;2023-06-24T06:36:15;1.60;;;1.50;;
10769;SDS011;5437;50.852;4.438;2023-06-24T06:38:41;1.75;;;1.40;;
10769;SDS011;5437;50.852;4.438;2023-06-24T06:41:07;2.40;;;1.60;;
10769;SDS011;5437;50.852;4.438;2023-06-24T06:43:34;1.75;;;1.55;;
10769;SDS011;5437;50.852;4.438;2023-06-24T06:46:00;2.28;;;1.73;;
10769;SDS011;5437;50.852;4.438;2023-06-24T06:48:26;2.28;;;1.63;;
10769;SDS011;5437;50.852;4.438;2023-06-24T06:50:52;1.73;;;1.63;;
10769;SDS011;5437;50.852;4.438;2023-06-24T06:53:18;1.77;;;1.58;;
10769;SDS011;5437;50.852;4.438;2023-06-24T06:55:45;1.52;;;1.40;;
10769;SDS011;5437;50.852;4.438;2023-06-24T06:58:11;1.63;;;1.25;;
10769;SDS011;5437;50.852;4.438;2023-06-24T07:00:40;2.95;;;1.77;;
10769;SDS011;5437;50.852;4.438;2023-06-24T07:03:06;1.73;;;1.63;;
10769;SDS011;5437;50.852;4.438;2023-06-24T07:05:32;2.20;;;1.75;;
10769;SDS011;5437;50.852;4.438;2023-06-24T07:07:58;1.58;;;1.48;;
10769;SDS011;5437;50.852;4.438;2023-06-24T07:10:25;1.38;;;1.27;;
10769;SDS011;5437;50.852;4.438;2023-06-24T07:12:51;2.63;;;1.90;;
10769;SDS011;5437;50.852;4.438;2023-06-24T07:15:24;1.83;;;1.65;;
10769;SDS011;5437;50.852;4.438;2023-06-24T07:17:50;2.90;;;1.70;;
10769;SDS011;5437;50.852;4.438;2023-06-24T07:20:16;1.40;;;1.27;;
10769;SDS011;5437;50.852;4.438;2023-06-24T07:22:42;2.15;;;1.40;;
10769;SDS011;5437;50.852;4.438;2023-06-24T07:25:11;1.70;;;1.50;;
10769;SDS011;5437;50.852;4.438;2023-06-24T07:27:38;1.98;;;1.88;;
10769;SDS011;5437;50.852;4.438;2023-06-24T07:30:04;1.45;;;1.35;;
10769;SDS011;5437;50.852;4.438;2023-06-24T07:32:33;2.78;;;1.40;;
10769;SDS011;5437;50.852;4.438;2023-06-24T07:35:01;1.63;;;1.52;;
10769;SDS011;5437;50.852;4.438;2023-06-24T07:37:27;1.70;;;1.60;;
10769;SDS011;5437;50.852;4.438;2023-06-24T07:39:53;2.40;;;1.80;;
10769;SDS011;5437;50.852;4.438;2023-06-24T07:42:19;1.92;;;1.52;;
10769;SDS011;5437;50.852;4.438;2023-06-24T07:44:46;1.40;;;1.30;;
10769;SDS011;5437;50.852;4.438;2023-06-24T07:47:12;1.80;;;1.70;;
10769;SDS011;5437;50.852;4.438;2023-06-24T07:49:38;2.67;;;1.70;;
10769;SDS011;5437;50.852;4.438;2023-06-24T07:52:04;1.73;;;1.48;;
10769;SDS011;5437;50.852;4.438;2023-06-24T07:54:31;1.50;;;1.40;;
10769;SDS011;5437;50.852;4.438;2023-06-24T07:56:59;1.50;;;1.40;;
10769;SDS011;5437;50.852;4.438;2023-06-24T07:59:26;3.45;;;1.52;;
10769;SDS011;5437;50.852;4.438;2023-06-24T08:01:52;1.65;;;1.52;;
10769;SDS011;5437;50.852;4.438;2023-06-24T08:04:21;1.55;;;1.45;;
10769;SDS011;5437;50.852;4.438;2023-06-24T08:06:47;1.83;;;1.48;;
10769;SDS011;5437;50.852;4.438;2023-06-24T08:09:16;1.50;;;1.40;;
10769;SDS011;5437;50.852;4.438;2023-06-24T08:11:46;1.50;;;1.40;;
10769;SDS011;5437;50.852;4.438;2023-06-24T08:14:21;1.55;;;1.45;;
10769;SDS011;5437;50.852;4.438;2023-06-24T08:16:47;1.55;;;1.42;;
10769;SDS011;5437;50.852;4.438;2023-06-24T08:19:15;1.50;;;1.40;;
10769;SDS011;5437;50.852;4.438;2023-06-24T08:21:42;1.98;;;1.50;;
10769;SDS011;5437;50.852;4.438;2023-06-24T08:24:11;1.85;;;1.38;;
10769;SDS011;5437;50.852;4.438;2023-06-24T08:26:40;3.08;;;1.48;;
10769;SDS011;5437;50.852;4.438;2023-06-24T08:29:09;1.75;;;1.55;;
10769;SDS011;5437;50.852;4.438;2023-06-24T08:31:35;1.50;;;1.40;;
10769;SDS011;5437;50.852;4.438;2023-06-24T08:34:02;1.50;;;1.40;;
10769;SDS011;5437;50.852;4.438;2023-06-24T08:36:28;2.15;;;1.25;;
10769;SDS011;5437;50.852;4.438;2023-06-24T08:38:55;1.67;;;1.42;;
10769;SDS011;5437;50.852;4.438;2023-06-24T08:41:24;1.50;;;1.40;;
10769;SDS011;5437;50.852;4.438;2023-06-24T08:43:53;1.35;;;1.25;;
10769;SDS011;5437;50.852;4.438;2023-06-24T08:46:20;1.35;;;1.25;;
10769;SDS011;5437;50.852;4.438;2023-06-24T08:48:49;2.35;;;1.25;;
10769;SDS011;5437;50.852;4.438;2023-06-24T08:51:24;1.45;;;1.08;;
10769;SDS011;5437;50.852;4.438;2023-06-24T08:53:53;1.10;;;1.10;;
10769;SDS011;5437;50.852;4.438;2023-06-24T08:56:20;1.60;;;1.35;;
10769;SDS011;5437;50.852;4.438;2023-06-24T08:58:49;1.23;;;1.13;;
10769;SDS011;5437;50.852;4.438;2023-06-24T09:01:24;1.35;;;1.25;;
10769;SDS011;5437;50.852;4.438;2023-06-24T09:03:59;2.15;;;1.15;;
10769;SDS011;5437;50.852;4.438;2023-06-24T09:06:28;1.40;;;1.23;;
10769;SDS011;5437;50.852;4.438;2023-06-24T09:08:54;1.15;;;1.10;;
10769;SDS011;5437;50.852;4.438;2023-06-24T09:11:26;1.42;;;1.13;;
10769;SDS011;5437;50.852;4.438;2023-06-24T09:13:56;1.20;;;1.10;;
10769;SDS011;5437;50.852;4.438;2023-06-24T09:16:22;1.25;;;1.15;;
10769;SDS011;5437;50.852;4.438;2023-06-24T09:18:49;1.48;;;1.38;;
10769;SDS011;5437;50.852;4.438;2023-06-24T09:21:22;1.58;;;1.20;;
10769;SDS011;5437;50.852;4.438;2023-06-24T09:23:56;1.10;;;1.00;;
10769;SDS011;5437;50.852;4.438;2023-06-24T09:26:23;1.27;;;1.00;;
10769;SDS011;5437;50.852;4.438;2023-06-24T09:28:52;1.00;;;1.00;;
10769;SDS011;5437;50.852;4.438;2023-06-24T09:31:22;1.80;;;1.20;;
10769;SDS011;5437;50.852;4.438;2023-06-24T09:33:49;1.20;;;1.10;;
10769;SDS011;5437;50.852;4.438;2023-06-24T09:36:15;1.33;;;1.20;;
10769;SDS011;5437;50.852;4.438;2023-06-24T09:38:42;1.45;;;1.20;;
10769;SDS011;5437;50.852;4.438;2023-06-24T09:41:09;1.40;;;1.20;;
10769;SDS011;5437;50.852;4.438;2023-06-24T09:43:36;1.92;;;1.20;;
10769;SDS011;5437;50.852;4.438;2023-06-24T09:46:02;0.90;;;0.90;;
10769;SDS011;5437;50.852;4.438;2023-06-24T09:48:29;1.50;;;1.10;;
10769;SDS011;5437;50.852;4.438;2023-06-24T09:51:02;1.00;;;0.90;;
10769;SDS011;5437;50.852;4.438;2023-06-24T09:53:32;1.10;;;1.00;;
10769;SDS011;5437;50.852;4.438;2023-06-24T09:55:59;0.88;;;0.88;;
10769;SDS011;5437;50.852;4.438;2023-06-24T09:58:26;0.90;;;0.90;;
10769;SDS011;5437;50.852;4.438;2023-06-24T10:00:52;1.70;;;1.10;;
10769;SDS011;5437;50.852;4.438;2023-06-24T10:03:20;1.25;;;1.15;;
10769;SDS011;5437;50.852;4.438;2023-06-24T10:05:48;1.08;;;1.08;;
10769;SDS011;5437;50.852;4.438;2023-06-24T10:08:17;0.90;;;0.90;;
10769;SDS011;5437;50.852;4.438;2023-06-24T10:10:45;1.23;;;1.05;;
10769;SDS011;5437;50.852;4.438;2023-06-24T10:13:11;1.20;;;1.10;;
10769;SDS011;5437;50.852;4.438;2023-06-24T10:15:37;0.93;;;0.93;;
10769;SDS011;5437;50.852;4.438;2023-06-24T10:18:16;1.00;;;1.00;;
10769;SDS011;5437;50.852;4.438;2023-06-24T10:20:49;1.20;;;1.10;;
10769;SDS011;5437;50.852;4.438;2023-06-24T10:23:15;1.00;;;1.00;;
10769;SDS011;5437;50.852;4.438;2023-06-24T10:25:42;1.13;;;1.02;;
10769;SDS011;5437;50.852;4.438;2023-06-24T10:28:12;1.13;;;1.02;;
10769;SDS011;5437;50.852;4.438;2023-06-24T10:30:38;1.45;;;1.35;;
10769;SDS011;5437;50.852;4.438;2023-06-24T10:33:09;0.88;;;0.88;;
10769;SDS011;5437;50.852;4.438;2023-06-24T10:35:40;0.90;;;0.90;;
10769;SDS011;5437;50.852;4.438;2023-06-24T10:38:09;1.55;;;1.00;;
10769;SDS011;5437;50.852;4.438;2023-06-24T10:40:36;0.90;;;0.90;;
10769;SDS011;5437;50.852;4.438;2023-06-24T10:43:22;1.27;;;1.00;;
10769;SDS011;5437;50.852;4.438;2023-06-24T10:45:52;1.40;;;1.10;;
10769;SDS011;5437;50.852;4.438;2023-06-24T10:48:18;1.10;;;0.80;;
10769;SDS011;5437;50.852;4.438;2023-06-24T10:50:45;1.08;;;1.00;;
10769;SDS011;5437;50.852;4.438;2023-06-24T10:53:12;1.35;;;1.17;;
10769;SDS011;5437;50.852;4.438;2023-06-24T10:55:38;1.52;;;1.10;;
10769;SDS011;5437;50.852;4.438;2023-06-24T10:58:07;3.72;;;1.38;;
10769;SDS011;5437;50.852;4.438;2023-06-24T11:00:34;1.05;;;1.02;;
10769;SDS011;5437;50.852;4.438;2023-06-24T11:03:13;1.20;;;1.20;;
10769;SDS011;5437;50.852;4.438;2023-06-24T11:05:43;0.85;;;0.85;;
10769;SDS011;5437;50.852;4.438;2023-06-24T11:08:12;1.20;;;1.10;;
10769;SDS011;5437;50.852;4.438;2023-06-24T11:10:48;1.20;;;1.10;;
10769;SDS011;5437;50.852;4.438;2023-06-24T11:13:14;1.20;;;1.08;;
10769;SDS011;5437;50.852;4.438;2023-06-24T11:15:45;2.40;;;1.20;;
10769;SDS011;5437;50.852;4.438;2023-06-24T11:18:17;1.85;;;1.20;;
10769;SDS011;5437;50.852;4.438;2023-06-24T11:20:43;1.30;;;1.20;;
10769;SDS011;5437;50.852;4.438;2023-06-24T11:23:10;1.55;;;1.10;;
10769;SDS011;5437;50.852;4.438;2023-06-24T11:25:42;1.20;;;1.10;;
10769;SDS011;5437;50.852;4.438;2023-06-24T11:28:16;1.10;;;1.10;;
10769;SDS011;5437;50.852;4.438;2023-06-24T11:30:42;1.65;;;1.13;;
10769;SDS011;5437;50.852;4.438;2023-06-24T11:33:09;1.38;;;1.27;;
10769;SDS011;5437;50.852;4.438;2023-06-24T11:35:38;1.50;;;1.40;;
10769;SDS011;5437;50.852;4.438;2023-06-24T11:38:06;1.13;;;1.05;;
10769;SDS011;5437;50.852;4.438;2023-06-24T11:40:34;2.38;;;1.27;;
10769;SDS011;5437;50.852;4.438;2023-06-24T11:43:00;1.42;;;1.30;;
10769;SDS011;5437;50.852;4.438;2023-06-24T11:45:27;1.40;;;1.30;;
10769;SDS011;5437;50.852;4.438;2023-06-24T11:47:53;1.35;;;1.25;;
10769;SDS011;5437;50.852;4.438;2023-06-24T11:50:29;1.13;;;1.08;;
10769;SDS011;5437;50.852;4.438;2023-06-24T11:52:55;1.40;;;1.30;;
10769;SDS011;5437;50.852;4.438;2023-06-24T11:55:22;1.30;;;1.20;;
10769;SDS011;5437;50.852;4.438;2023-06-24T11:57:59;1.10;;;1.00;;
10769;SDS011;5437;50.852;4.438;2023-06-24T12:00:30;1.38;;;1.27;;
10769;SDS011;5437;50.852;4.438;2023-06-24T12:02:57;1.10;;;1.10;;
10769;SDS011;5437;50.852;4.438;2023-06-24T12:05:27;1.15;;;1.10;;
10769;SDS011;5437;50.852;4.438;2023-06-24T12:07:54;1.50;;;1.23;;
10769;SDS011;5437;50.852;4.438;2023-06-24T12:10:20;1.60;;;1.40;;
10769;SDS011;5437;50.852;4.438;2023-06-24T12:12:46;1.40;;;1.30;;
10769;SDS011;5437;50.852;4.438;2023-06-24T12:15:15;1.60;;;1.20;;
10769;SDS011;5437;50.852;4.438;2023-06-24T12:17:41;1.17;;;1.08;;
10769;SDS011;5437;50.852;4.438;2023-06-24T12:20:07;1.98;;;1.35;;
10769;SDS011;5437;50.852;4.438;2023-06-24T12:22:40;1.42;;;1.30;;
10769;SDS011;5437;50.852;4.438;2023-06-24T12:25:26;1.52;;;1.40;;
10769;SDS011;5437;50.852;4.438;2023-06-24T12:27:52;1.38;;;1.27;;
10769;SDS011;5437;50.852;4.438;2023-06-24T12:30:19;1.42;;;1.33;;
10769;SDS011;5437;50.852;4.438;2023-06-24T12:32:48;1.52;;;1.42;;
10769;SDS011;5437;50.852;4.438;2023-06-24T12:35:15;1.30;;;1.20;;
10769;SDS011;5437;50.852;4.438;2023-06-24T12:37:41;1.35;;;1.25;;
10769;SDS011;5437;50.852;4.438;2023-06-24T12:40:10;1.30;;;1.20;;
10769;SDS011;5437;50.852;4.438;2023-06-24T12:42:39;1.27;;;1.17;;
10769;SDS011;5437;50.852;4.438;2023-06-24T12:45:05;1.50;;;1.40;;
10769;SDS011;5437;50.852;4.438;2023-06-24T12:47:31;1.73;;;1.27;;
10769;SDS011;5437;50.852;4.438;2023-06-24T12:49:58;2.05;;;1.38;;
10769;SDS011;5437;50.852;4.438;2023-06-24T12:52:24;1.75;;;1.25;;
10769;SDS011;5437;50.852;4.438;2023-06-24T12:54:50;1.48;;;1.38;;
10769;SDS011;5437;50.852;4.438;2023-06-24T12:57:17;1.40;;;1.30;;
10769;SDS011;5437;50.852;4.438;2023-06-24T12:59:43;2.00;;;1.40;;
10769;SDS011;5437;50.852;4.438;2023-06-24T13:02:09;2.80;;;1.27;;
10769;SDS011;5437;50.852;4.438;2023-06-24T13:04:36;1.70;;;1.55;;
10769;SDS011;5437;50.852;4.438;2023-06-24T13:07:02;1.70;;;1.50;;
10769;SDS011;5437;50.852;4.438;2023-06-24T13:09:32;1.40;;;1.30;;
10769;SDS011;5437;50.852;4.438;2023-06-24T13:11:58;1.92;;;1.50;;
10769;SDS011;5437;50.852;4.438;2023-06-24T13:14:27;1.55;;;1.42;;
10769;SDS011;5437;50.852;4.438;2023-06-24T13:16:54;1.35;;;1.25;;
10769;SDS011;5437;50.852;4.438;2023-06-24T13:19:20;1.95;;;1.42;;
10769;SDS011;5437;50.852;4.438;2023-06-24T13:21:49;2.08;;;1.30;;
10769;SDS011;5437;50.852;4.438;2023-06-24T13:24:15;1.45;;;1.35;;
10769;SDS011;5437;50.852;4.438;2023-06-24T13:26:47;1.98;;;1.77;;
10769;SDS011;5437;50.852;4.438;2023-06-24T13:29:25;1.70;;;1.33;;
10769;SDS011;5437;50.852;4.438;2023-06-24T13:32:01;1.30;;;1.20;;
10769;SDS011;5437;50.852;4.438;2023-06-24T13:34:30;1.60;;;1.50;;
10769;SDS011;5437;50.852;4.438;2023-06-24T13:36:56;1.70;;;1.30;;
10769;SDS011;5437;50.852;4.438;2023-06-24T13:39:23;3.97;;;1.60;;
10769;SDS011;5437;50.852;4.438;2023-06-24T13:41:57;1.30;;;1.20;;
10769;SDS011;5437;50.852;4.438;2023-06-24T13:44:29;1.40;;;1.30;;
10769;SDS011;5437;50.852;4.438;2023-06-24T13:46:55;1.60;;;1.40;;
10769;SDS011;5437;50.852;4.438;2023-06-24T13:49:21;1.90;;;1.30;;
10769;SDS011;5437;50.852;4.438;2023-06-24T13:51:48;1.95;;;1.40;;
10769;SDS011;5437;50.852;4.438;2023-06-24T13:54:15;1.70;;;1.60;;
10769;SDS011;5437;50.852;4.438;2023-06-24T13:56:44;1.45;;;1.30;;
10769;SDS011;5437;50.852;4.438;2023-06-24T13:59:11;1.60;;;1.50;;
10769;SDS011;5437;50.852;4.438;2023-06-24T14:01:44;1.70;;;1.60;;
10769;SDS011;5437;50.852;4.438;2023-06-24T14:04:18;2.33;;;1.60;;
10769;SDS011;5437;50.852;4.438;2023-06-24T14:06:47;1.85;;;1.38;;
10769;SDS011;5437;50.852;4.438;2023-06-24T14:09:13;1.88;;;1.60;;
10769;SDS011;5437;50.852;4.438;2023-06-24T14:11:39;1.70;;;1.40;;
10769;SDS011;5437;50.852;4.438;2023-06-24T14:14:08;1.92;;;1.50;;
10769;SDS011;5437;50.852;4.438;2023-06-24T14:16:34;1.98;;;1.40;;
10769;SDS011;5437;50.852;4.438;2023-06-24T14:19:00;1.45;;;1.35;;
10769;SDS011;5437;50.852;4.438;2023-06-24T14:21:26;2.45;;;1.63;;
10769;SDS011;5437;50.852;4.438;2023-06-24T14:23:54;1.90;;;1.50;;
10769;SDS011;5437;50.852;4.438;2023-06-24T14:26:20;1.67;;;1.58;;
10769;SDS011;5437;50.852;4.438;2023-06-24T14:28:46;1.60;;;1.50;;
10769;SDS011;5437;50.852;4.438;2023-06-24T14:31:12;1.35;;;1.25;;
10769;SDS011;5437;50.852;4.438;2023-06-24T14:33:39;1.77;;;1.67;;
10769;SDS011;5437;50.852;4.438;2023-06-24T14:36:05;1.60;;;1.50;;
10769;SDS011;5437;50.852;4.438;2023-06-24T14:38:31;2.13;;;1.70;;
10769;SDS011;5437;50.852;4.438;2023-06-24T14:40:57;1.83;;;1.73;;
10769;SDS011;5437;50.852;4.438;2023-06-24T14:43:24;1.70;;;1.60;;
10769;SDS011;5437;50.852;4.438;2023-06-24T14:45:50;1.60;;;1.50;;
10769;SDS011;5437;50.852;4.438;2023-06-24T14:48:16;1.65;;;1.55;;
10769;SDS011;5437;50.852;4.438;2023-06-24T14:50:42;1.63;;;1.40;;
10769;SDS011;5437;50.852;4.438;2023-06-24T14:53:11;1.48;;;1.38;;
10769;SDS011;5437;50.852;4.438;2023-06-24T14:55:37;1.60;;;1.50;;
10769;SDS011;5437;50.852;4.438;2023-06-24T14:58:03;2.22;;;1.42;;
10769;SDS011;5437;50.852;4.438;2023-06-24T15:00:30;2.45;;;1.80;;
10769;SDS011;5437;50.852;4.438;2023-06-24T15:02:56;1.98;;;1.48;;
10769;SDS011;5437;50.852;4.438;2023-06-24T15:05:24;2.15;;;1.27;;
10769;SDS011;5437;50.852;4.438;2023-06-24T15:07:51;1.63;;;1.45;;
10769;SDS011;5437;50.852;4.438;2023-06-24T15:10:17;1.67;;;1.23;;
10769;SDS011;5437;50.852;4.438;2023-06-24T15:12:45;1.60;;;1.50;;
10769;SDS011;5437;50.852;4.438;2023-06-24T15:15:14;1.40;;;1.30;;